WetterOnline ( https://www.wetteronline.de )

Wetter aktuell Falkensee

Aktuelles Wetter: Berlin-Dahlem (70m)

6-stündlich | Neueste Meldungen
Ortszeit Temperatur Wetter
Mo, 15.04. 8:00 8.2° C leicht bewölkt
Mo, 15.04. 2:00 8.7° C wolkig
So, 14.04. 20:00 13.4° C leicht bewölkt
So, 14.04. 14:00 15.1° C wolkig
So, 14.04. 8:00 15.5° C bewölkt
So, 14.04. 2:00 16.1° C leicht bewölkt
Sa, 13.04. 20:00 19.6° C leicht bewölkt
Sa, 13.04. 14:00 21.4° C leicht bewölkt
Ortszeit Temperatur Wetter
Mo, 15.04. 13:00 12.1° C bewölkt
Mo, 15.04. 12:00 13.3° C wolkig
Mo, 15.04. 11:00 11.0° C wolkig
Mo, 15.04. 10:00 10.4° C bewölkt
Mo, 15.04. 9:00 9.0° C leicht bewölkt
Mo, 15.04. 8:00 8.2° C leicht bewölkt
Ortszeit Relative Feuchte Sichtweite
Mo, 15.04. 8:00 65% 45 km
Mo, 15.04. 2:00 70% 45 km
So, 14.04. 20:00 41% 50 km
So, 14.04. 14:00 40% 40 km
So, 14.04. 8:00 68% 50 km
So, 14.04. 2:00 69% 40 km
Sa, 13.04. 20:00 60% 45 km
Sa, 13.04. 14:00 46% 45 km
Ortszeit Relative Feuchte Sichtweite
Mo, 15.04. 13:00 57% 45 km
Mo, 15.04. 12:00 58% 45 km
Mo, 15.04. 11:00 66% 45 km
Mo, 15.04. 10:00 71% 45 km
Mo, 15.04. 9:00 64% 45 km
Mo, 15.04. 8:00 65% 45 km
Ortszeit Niederschlagsmenge Niederschlagsart
Mo, 15.04. 8:00 0.1 l/m2 in 12 Std. Regen
Mo, 15.04. 2:00 0.0 l/m2 in 6 Std. -
So, 14.04. 20:00 0.0 l/m2 in 12 Std. -
So, 14.04. 14:00 0.0 l/m2 in 6 Std. -
So, 14.04. 8:00 0.0 l/m2 in 12 Std. -
So, 14.04. 2:00 0.0 l/m2 in 6 Std. -
Sa, 13.04. 20:00 0.0 l/m2 in 12 Std. -
Sa, 13.04. 14:00 0.0 l/m2 in 6 Std. -
Ortszeit Niederschlagsmenge Niederschlagsart
Mo, 15.04. 13:00 keine Meldung -
Mo, 15.04. 12:00 keine Meldung -
Mo, 15.04. 11:00 keine Meldung -
Mo, 15.04. 10:00 keine Meldung -
Mo, 15.04. 9:00 keine Meldung -
Mo, 15.04. 8:00 keine Meldung -
Ortszeit Stärke Spitze Richtung
km/h Bft. km/h Grad Sektor
Mo, 15.04. 8:00 7 2 - 300° NW
Mo, 15.04. 2:00 11 2 - 290° W
So, 14.04. 20:00 14 3 50 290° W
So, 14.04. 14:00 22 4 50 300° NW
So, 14.04. 8:00 22 4 47 290° W
So, 14.04. 2:00 14 3 - 220° SW
Sa, 13.04. 20:00 11 2 47 240° SW
Sa, 13.04. 14:00 22 4 - 260° W
Ortszeit Stärke Spitze Richtung
km/h Bft. km/h Grad Sektor
Mo, 15.04. 13:00 14 3 - 210° SW
Mo, 15.04. 12:00 11 2 - 210° SW
Mo, 15.04. 11:00 11 2 - 210° SW
Mo, 15.04. 10:00 7 2 - 220° SW
Mo, 15.04. 9:00 4 1 - 200° S
Mo, 15.04. 8:00 7 2 - 300° NW
Ortszeit Untergrenze Bedeckung Gattung
total tief tief mittel hoch
Mo, 15.04. 8:00 1500 m 4/8 1/8 Sc Ac Ci
Mo, 15.04. 2:00 3000 m 7/8 7/8 - Ns -
So, 14.04. 20:00 1800 m 4/8 1/8 Cu - Ci
So, 14.04. 14:00 1500 m 7/8 1/8 Cu Ac -
So, 14.04. 8:00 1200 m 7/8 6/8 Cu - -
So, 14.04. 2:00 6900 m 7/8 7/8 - - Cs
Sa, 13.04. 20:00 6900 m 7/8 7/8 - - Cs
Sa, 13.04. 14:00 1500 m 7/8 1/8 Cu - Ci
Ortszeit Bedeckungsgrad in Achtel und Wolkenuntergrenze
Mo, 15.04. 13:00 3(1080m) 7(1500m)
Mo, 15.04. 12:00 4(1020m) 3(2700m)
Mo, 15.04. 11:00 4(840m) 5(2700m)
Mo, 15.04. 10:00 3(630m) 6(2700m)
Mo, 15.04. 9:00 1(600m) 3(3000m)
Mo, 15.04. 8:00 1(1500m) 3(3000m)
Ortszeit Luftdruck NN (hPa) Tendenz (hPa in 3 Std.)
Mo, 15.04. 8:00 1013 - 1,2
Mo, 15.04. 2:00 1015 - 1,4
So, 14.04. 20:00 1018 - 0,2
So, 14.04. 14:00 1019 + 1,0
So, 14.04. 8:00 1016 + 1,7
So, 14.04. 2:00 1016 - 2,0
Sa, 13.04. 20:00 1019 - 2,0
Sa, 13.04. 14:00 1023 - 1,5
Ortszeit Luftdruck NN (hPa) Tendenz (hPa in 3 Std.)
Mo, 15.04. 13:00 1008 - 2,5
Mo, 15.04. 12:00 1009 - 2,5
Mo, 15.04. 11:00 1011 - 1,9
Mo, 15.04. 10:00 1011 - 1,8
Mo, 15.04. 9:00 1012 - 0,9
Mo, 15.04. 8:00 1013 - 1,2
Ortszeit Schneehöhe (cm)
Mo, 15.04. 8:00 0
Mo, 15.04. 2:00 0
So, 14.04. 20:00 0
So, 14.04. 14:00 0
So, 14.04. 8:00 0
So, 14.04. 2:00 0
Sa, 13.04. 20:00 0
Sa, 13.04. 14:00 0
Ortszeit Schneehöhe (cm)
Mo, 15.04. 13:00 -
Mo, 15.04. 12:00 -
Mo, 15.04. 11:00 -
Mo, 15.04. 10:00 -
Mo, 15.04. 9:00 -
Mo, 15.04. 8:00 0
Link zu dieser Seite / Seite empfehlen

Das Wetter in ...